createdAt,value
2023-04-27T00:01:13.872Z,3.74
2023-04-27T00:03:41.431Z,3.73
2023-04-27T00:06:09.744Z,3.73
2023-04-27T00:08:36.844Z,3.74
2023-04-27T00:11:03.863Z,3.73
2023-04-27T00:13:30.546Z,3.73
2023-04-27T00:15:57.168Z,3.74
2023-04-27T00:18:23.826Z,3.75
2023-04-27T00:20:50.565Z,3.78
2023-04-27T00:23:17.199Z,3.83
2023-04-27T00:25:43.852Z,3.82
2023-04-27T00:28:10.660Z,3.81
2023-04-27T00:30:37.238Z,3.78
2023-04-27T00:33:04.004Z,3.76
2023-04-27T00:35:32.159Z,3.76
2023-04-27T00:37:58.830Z,3.80
2023-04-27T00:40:25.423Z,3.76
2023-04-27T00:42:52.090Z,3.72
2023-04-27T00:45:18.658Z,3.69
2023-04-27T00:47:46.018Z,3.66
2023-04-27T00:50:12.675Z,3.59
2023-04-27T00:52:39.526Z,3.50
2023-04-27T00:55:07.266Z,3.42
2023-04-27T00:57:34.374Z,3.37
2023-04-27T01:00:02.272Z,3.34
2023-04-27T01:02:30.095Z,3.26
2023-04-27T01:04:57.182Z,3.21
2023-04-27T01:07:26.917Z,3.12
2023-04-27T01:09:53.675Z,3.01
2023-04-27T01:12:20.571Z,2.94
2023-04-27T01:14:47.121Z,2.87
2023-04-27T01:17:14.227Z,2.82
2023-04-27T01:19:41.222Z,2.69
2023-04-27T01:22:08.026Z,2.63
2023-04-27T01:24:34.680Z,2.52
2023-04-27T01:27:01.785Z,2.43
2023-04-27T01:29:28.498Z,2.33
2023-04-27T01:31:55.101Z,2.23
2023-04-27T01:34:21.839Z,2.17
2023-04-27T01:36:48.456Z,2.12
2023-04-27T01:39:15.338Z,2.07
2023-04-27T01:41:42.102Z,2.01
2023-04-27T01:44:08.748Z,1.99
2023-04-27T01:46:35.504Z,1.93
2023-04-27T01:49:02.431Z,1.95
2023-04-27T01:51:29.040Z,1.84
2023-04-27T01:53:55.752Z,1.77
2023-04-27T01:56:22.336Z,1.73
2023-04-27T01:58:48.895Z,1.64
2023-04-27T02:01:15.767Z,1.57
2023-04-27T02:03:42.477Z,1.55
2023-04-27T02:06:09.477Z,1.52
2023-04-27T02:08:36.326Z,1.46
2023-04-27T02:11:03.328Z,1.51
2023-04-27T02:13:29.909Z,1.54
2023-04-27T02:15:56.666Z,1.53
2023-04-27T02:18:24.246Z,1.51
2023-04-27T02:20:50.877Z,1.46
2023-04-27T02:23:17.432Z,1.45
2023-04-27T02:25:46.801Z,1.43
2023-04-27T02:28:14.220Z,1.39
2023-04-27T02:30:41.520Z,1.40
2023-04-27T02:33:08.218Z,1.42
2023-04-27T02:35:34.865Z,1.38
2023-04-27T02:38:01.619Z,1.33
2023-04-27T02:40:28.439Z,1.40
2023-04-27T02:42:54.982Z,1.45
2023-04-27T02:45:21.619Z,1.51
2023-04-27T02:47:48.927Z,1.59
2023-04-27T02:50:15.624Z,1.61
2023-04-27T02:52:42.195Z,1.64
2023-04-27T02:55:09.283Z,1.62
2023-04-27T02:57:36.064Z,1.63
2023-04-27T03:00:04.431Z,1.63
2023-04-27T03:02:31.045Z,1.65
2023-04-27T03:04:59.195Z,1.67
2023-04-27T03:07:25.844Z,1.68
2023-04-27T03:09:52.473Z,1.69
2023-04-27T03:12:19.077Z,1.67
2023-04-27T03:14:45.845Z,1.65
2023-04-27T03:17:12.438Z,1.63
2023-04-27T03:19:39.020Z,1.61
2023-04-27T03:22:05.695Z,1.60
2023-04-27T03:24:33.282Z,1.64
2023-04-27T03:26:59.886Z,1.64
2023-04-27T03:29:27.664Z,1.67
2023-04-27T03:31:54.244Z,1.67
2023-04-27T03:34:21.933Z,1.64
2023-04-27T03:36:48.521Z,1.61
2023-04-27T03:39:15.468Z,1.61
2023-04-27T03:41:42.602Z,1.62
2023-04-27T03:44:09.681Z,1.58
2023-04-27T03:46:36.371Z,1.56
2023-04-27T03:49:03.254Z,1.55
2023-04-27T03:51:32.169Z,1.55
2023-04-27T03:53:59.265Z,1.54
2023-04-27T03:56:28.359Z,1.56
2023-04-27T03:58:54.952Z,1.57
2023-04-27T04:01:22.010Z,1.58
2023-04-27T04:03:48.982Z,1.61
2023-04-27T04:06:15.699Z,1.57
2023-04-27T04:08:42.497Z,1.57
2023-04-27T04:11:09.091Z,1.57
2023-04-27T04:13:36.572Z,1.60
2023-04-27T04:16:08.290Z,1.64
2023-04-27T04:18:36.164Z,1.69
2023-04-27T04:21:03.338Z,1.73
2023-04-27T04:23:29.959Z,1.79
2023-04-27T04:25:56.713Z,1.86
2023-04-27T04:28:23.942Z,1.92
2023-04-27T04:30:51.188Z,1.95
2023-04-27T04:33:18.140Z,1.99
2023-04-27T04:35:44.802Z,2.03
2023-04-27T04:38:11.443Z,2.07
2023-04-27T04:40:44.444Z,2.12
2023-04-27T04:43:13.372Z,2.18
2023-04-27T04:45:40.096Z,2.25
2023-04-27T04:48:06.692Z,2.30
2023-04-27T04:50:33.617Z,2.38
2023-04-27T04:53:00.281Z,2.45
2023-04-27T04:55:28.384Z,2.51
2023-04-27T04:57:55.136Z,2.57
2023-04-27T05:00:22.453Z,2.66
2023-04-27T05:02:49.532Z,2.75
2023-04-27T05:05:16.723Z,2.85
2023-04-27T05:07:43.418Z,2.94
2023-04-27T05:10:10.196Z,3.05
2023-04-27T05:12:36.821Z,3.15
2023-04-27T05:15:03.952Z,3.27
2023-04-27T05:17:30.676Z,3.34
2023-04-27T05:19:58.246Z,3.44
2023-04-27T05:22:25.043Z,3.53
2023-04-27T05:24:51.942Z,3.65
2023-04-27T05:27:18.610Z,3.74
2023-04-27T05:29:45.176Z,3.85
2023-04-27T05:32:11.917Z,3.95
2023-04-27T05:34:38.589Z,4.09
2023-04-27T05:37:05.352Z,4.18
2023-04-27T05:39:32.102Z,4.29
2023-04-27T05:41:58.944Z,4.40
2023-04-27T05:44:28.516Z,4.49
2023-04-27T05:46:58.383Z,4.64
2023-04-27T05:49:24.973Z,4.77
2023-04-27T05:51:51.927Z,4.90
2023-04-27T05:54:18.507Z,5.14
2023-04-27T05:56:45.062Z,5.33
2023-04-27T05:59:11.900Z,5.50
2023-04-27T06:01:38.940Z,5.70
2023-04-27T06:04:05.825Z,5.85
2023-04-27T06:06:33.254Z,6.00
2023-04-27T06:09:05.925Z,6.15
2023-04-27T06:11:32.490Z,6.31
2023-04-27T06:13:59.069Z,6.52
2023-04-27T06:16:25.847Z,6.70
2023-04-27T06:18:52.586Z,6.91
2023-04-27T06:21:19.151Z,7.09
2023-04-27T06:23:46.037Z,7.22
2023-04-27T06:26:12.620Z,7.36
2023-04-27T06:28:39.274Z,7.47
2023-04-27T06:31:06.435Z,7.59
2023-04-27T06:33:33.615Z,7.71
2023-04-27T06:36:01.302Z,7.78
2023-04-27T06:38:27.953Z,7.80
2023-04-27T06:40:54.986Z,7.80
2023-04-27T06:43:22.267Z,7.81
2023-04-27T06:45:48.902Z,7.84
2023-04-27T06:48:15.595Z,7.86
2023-04-27T06:50:42.181Z,7.89
2023-04-27T06:53:09.014Z,7.99
2023-04-27T06:55:38.199Z,8.11
2023-04-27T06:58:04.853Z,8.25
2023-04-27T07:00:32.249Z,8.33
2023-04-27T07:02:59.061Z,8.43
2023-04-27T07:05:26.142Z,8.56
2023-04-27T07:07:52.921Z,8.68
2023-04-27T07:10:19.602Z,8.79
2023-04-27T07:12:46.614Z,8.85
2023-04-27T07:15:13.496Z,8.96
2023-04-27T07:17:40.160Z,9.04
2023-04-27T07:20:07.573Z,9.15
2023-04-27T07:22:34.289Z,9.27
2023-04-27T07:25:00.990Z,9.42
2023-04-27T07:27:27.640Z,9.61
2023-04-27T07:29:54.807Z,9.81
2023-04-27T07:32:22.777Z,10.03
2023-04-27T07:34:54.061Z,10.27
2023-04-27T07:37:21.297Z,10.45
2023-04-27T07:39:49.364Z,10.58
2023-04-27T07:42:16.222Z,10.74
2023-04-27T07:44:42.888Z,10.97
2023-04-27T07:47:09.538Z,11.17
2023-04-27T07:49:37.515Z,11.35
2023-04-27T07:52:04.846Z,11.57
2023-04-27T07:54:31.675Z,11.73
2023-04-27T07:56:58.290Z,11.84
2023-04-27T07:59:24.995Z,11.99
2023-04-27T08:01:51.741Z,12.16
2023-04-27T08:04:19.252Z,12.30
2023-04-27T08:06:47.040Z,12.39
2023-04-27T08:09:14.153Z,12.44
2023-04-27T08:11:41.111Z,12.60
2023-04-27T08:14:13.436Z,12.80
2023-04-27T08:16:44.022Z,12.98
2023-04-27T08:19:11.730Z,13.01
2023-04-27T08:21:39.219Z,13.16
2023-04-27T08:24:06.543Z,13.31
2023-04-27T08:26:33.801Z,13.55
2023-04-27T08:29:01.976Z,13.08
2023-04-27T08:31:31.482Z,13.29
2023-04-27T08:33:58.954Z,13.55
2023-04-27T08:36:26.252Z,13.62
2023-04-27T08:38:52.876Z,13.59
2023-04-27T08:41:23.649Z,13.54
2023-04-27T08:43:51.568Z,13.39
2023-04-27T08:46:21.794Z,13.43
2023-04-27T08:48:52.362Z,13.47
2023-04-27T08:51:20.268Z,13.27
2023-04-27T08:53:48.905Z,13.33
2023-04-27T08:56:15.689Z,13.36
2023-04-27T08:58:44.722Z,12.96
2023-04-27T09:01:11.583Z,12.82
2023-04-27T09:03:38.847Z,12.67
2023-04-27T09:06:06.310Z,12.92
2023-04-27T09:08:46.935Z,13.14
2023-04-27T09:11:14.685Z,13.46
2023-04-27T09:13:45.028Z,13.75
2023-04-27T09:16:15.017Z,13.35
2023-04-27T09:18:43.890Z,13.49
2023-04-27T09:21:10.674Z,13.32
2023-04-27T09:23:39.149Z,12.98
2023-04-27T09:26:09.988Z,12.80
2023-04-27T09:28:41.331Z,12.91
2023-04-27T09:31:09.623Z,13.06
2023-04-27T09:33:36.764Z,13.42
2023-04-27T09:36:07.621Z,13.73
2023-04-27T09:38:34.346Z,13.95
2023-04-27T09:41:01.680Z,14.02
2023-04-27T09:43:29.997Z,14.01
2023-04-27T09:45:57.693Z,13.97
2023-04-27T09:48:25.701Z,13.75
2023-04-27T09:50:52.975Z,13.50
2023-04-27T09:53:51.828Z,13.53
2023-04-27T09:56:55.968Z,13.21
2023-04-27T09:59:54.758Z,13.56
2023-04-27T10:02:24.862Z,13.77
2023-04-27T10:05:16.734Z,13.27
2023-04-27T10:07:45.347Z,13.25
2023-04-27T10:10:20.384Z,13.53
2023-04-27T10:12:58.075Z,13.82
2023-04-27T10:15:28.785Z,14.11
2023-04-27T10:17:58.774Z,14.22
2023-04-27T10:20:33.645Z,14.40
2023-04-27T10:23:00.961Z,14.67
2023-04-27T10:25:38.296Z,15.14
2023-04-27T10:28:05.132Z,15.62
2023-04-27T10:30:37.133Z,15.73
2023-04-27T10:33:09.520Z,15.91
2023-04-27T10:35:54.694Z,16.13
2023-04-27T10:38:28.797Z,16.18
2023-04-27T10:41:03.047Z,16.09
2023-04-27T10:43:31.939Z,15.86
2023-04-27T10:46:12.903Z,15.95
2023-04-27T10:48:41.212Z,16.08
2023-04-27T10:51:07.948Z,16.07
2023-04-27T10:53:36.196Z,16.15
2023-04-27T10:56:05.211Z,16.52
2023-04-27T10:58:41.559Z,16.67
2023-04-27T11:01:25.640Z,16.69
2023-04-27T11:03:57.165Z,16.61
2023-04-27T11:06:23.852Z,16.71
2023-04-27T11:08:51.516Z,16.94
2023-04-27T11:11:18.270Z,16.57
2023-04-27T11:13:44.935Z,16.61
2023-04-27T11:16:11.563Z,16.51
2023-04-27T11:18:38.602Z,16.28
2023-04-27T11:21:16.601Z,16.22
2023-04-27T11:23:43.745Z,15.93
2023-04-27T11:26:14.885Z,16.23
2023-04-27T11:28:56.891Z,16.62
2023-04-27T11:31:23.537Z,16.58
2023-04-27T11:33:51.048Z,16.74
2023-04-27T11:36:23.102Z,16.99
2023-04-27T11:38:49.946Z,17.34
2023-04-27T11:41:16.724Z,17.24
2023-04-27T11:43:47.775Z,17.31
2023-04-27T11:46:14.468Z,17.34
2023-04-27T11:48:41.303Z,17.80
2023-04-27T11:51:10.867Z,17.92
2023-04-27T11:53:39.917Z,17.76
2023-04-27T11:56:13.680Z,17.71
2023-04-27T11:58:40.470Z,17.76
2023-04-27T12:01:10.386Z,17.70
2023-04-27T12:03:37.845Z,16.86
2023-04-27T12:06:21.701Z,16.86
2023-04-27T12:08:51.551Z,17.26
2023-04-27T12:11:18.620Z,17.23
2023-04-27T12:13:45.176Z,17.41
2023-04-27T12:16:11.860Z,17.36
2023-04-27T12:18:38.394Z,17.29
2023-04-27T12:23:34.772Z,17.41
2023-04-27T12:26:01.431Z,17.39
2023-04-27T12:28:27.993Z,17.48
2023-04-27T12:30:57.983Z,17.11
2023-04-27T12:33:24.804Z,16.51
2023-04-27T12:35:52.076Z,16.97
2023-04-27T12:38:18.679Z,16.87
2023-04-27T12:40:45.250Z,16.99
2023-04-27T12:43:12.903Z,17.49
2023-04-27T12:45:39.629Z,17.96
2023-04-27T12:48:06.556Z,18.36
2023-04-27T12:50:33.228Z,18.76
2023-04-27T12:53:00.314Z,18.97
2023-04-27T12:55:33.846Z,18.95
2023-04-27T12:58:01.375Z,18.79
2023-04-27T13:00:29.542Z,18.54
2023-04-27T13:02:56.967Z,18.79
2023-04-27T13:05:23.846Z,19.17
2023-04-27T13:07:50.447Z,19.50
2023-04-27T13:10:17.086Z,19.82
2023-04-27T13:12:43.736Z,19.99
2023-04-27T13:15:10.815Z,20.17
2023-04-27T13:17:37.507Z,19.88
2023-04-27T13:20:04.376Z,19.53
2023-04-27T13:22:30.941Z,19.58
2023-04-27T13:24:59.048Z,19.96
2023-04-27T13:27:28.381Z,20.53
2023-04-27T13:29:55.247Z,21.06
2023-04-27T13:32:22.633Z,21.62
2023-04-27T13:34:49.405Z,22.16
2023-04-27T13:37:16.622Z,20.87
2023-04-27T13:39:43.304Z,20.66
2023-04-27T13:42:10.159Z,19.77
2023-04-27T13:44:36.916Z,19.70
2023-04-27T13:47:03.592Z,19.97
2023-04-27T13:49:30.330Z,20.77
2023-04-27T13:51:56.971Z,21.60
2023-04-27T13:54:23.665Z,22.66
2023-04-27T13:56:50.242Z,22.58
2023-04-27T13:59:17.224Z,21.97
2023-04-27T14:01:44.018Z,21.82
2023-04-27T14:04:10.770Z,20.97
2023-04-27T14:06:37.580Z,21.49
2023-04-27T14:09:04.837Z,21.51
2023-04-27T14:11:37.217Z,21.40
2023-04-27T14:14:08.910Z,20.62
2023-04-27T14:16:35.743Z,20.41
2023-04-27T14:19:02.385Z,21.23
2023-04-27T14:21:28.965Z,21.36
2023-04-27T14:23:55.497Z,21.53
2023-04-27T14:26:22.044Z,22.93
2023-04-27T14:28:48.576Z,23.76
2023-04-27T14:31:15.147Z,24.36
2023-04-27T14:33:41.694Z,24.89
2023-04-27T14:36:08.558Z,24.70
2023-04-27T14:38:35.072Z,25.13
2023-04-27T14:41:03.043Z,24.19
2023-04-27T14:43:29.673Z,24.98
2023-04-27T14:46:02.099Z,25.43
2023-04-27T14:48:35.056Z,26.61
2023-04-27T14:51:02.325Z,26.53
2023-04-27T14:53:28.948Z,25.77
2023-04-27T14:55:55.530Z,26.11
2023-04-27T14:58:22.156Z,26.80
2023-04-27T15:00:50.896Z,27.37
2023-04-27T15:03:17.610Z,26.69
2023-04-27T15:05:44.396Z,27.21
2023-04-27T15:08:11.634Z,26.94
2023-04-27T15:10:38.227Z,28.09
2023-04-27T15:13:04.761Z,27.80
2023-04-27T15:15:31.477Z,28.36
2023-04-27T15:17:59.077Z,28.90
2023-04-27T15:20:25.692Z,28.97
2023-04-27T15:22:52.311Z,29.20
2023-04-27T15:25:19.198Z,29.32
2023-04-27T15:27:45.805Z,29.92
2023-04-27T15:30:14.265Z,28.51
2023-04-27T15:32:41.110Z,28.21
2023-04-27T15:35:08.371Z,28.62
2023-04-27T15:37:36.734Z,28.82
2023-04-27T15:40:04.274Z,28.68
2023-04-27T15:42:30.974Z,28.18
2023-04-27T15:44:57.960Z,28.13
2023-04-27T15:47:24.511Z,27.70
2023-04-27T15:49:57.393Z,27.78
2023-04-27T15:52:26.888Z,27.41
2023-04-27T15:54:53.717Z,26.86
2023-04-27T15:57:20.499Z,26.88
2023-04-27T15:59:47.085Z,26.75
2023-04-27T16:02:13.838Z,26.39
2023-04-27T16:04:40.675Z,26.57
2023-04-27T16:07:07.447Z,26.39
2023-04-27T16:09:34.360Z,25.63
2023-04-27T16:12:01.938Z,25.80
2023-04-27T16:14:28.563Z,25.75
2023-04-27T16:16:59.466Z,25.13
2023-04-27T16:19:27.509Z,25.37
2023-04-27T16:21:54.198Z,25.42
2023-04-27T16:24:21.286Z,25.55
2023-04-27T16:26:48.236Z,25.27
2023-04-27T16:29:15.079Z,25.09
2023-04-27T16:31:42.766Z,24.53
2023-04-27T16:34:09.608Z,24.25
2023-04-27T16:36:36.603Z,23.69
2023-04-27T16:39:05.066Z,23.77
2023-04-27T16:41:31.863Z,23.73
2023-04-27T16:43:58.464Z,23.35
2023-04-27T16:46:25.137Z,22.62
2023-04-27T16:48:51.802Z,22.69
2023-04-27T16:51:18.402Z,22.60
2023-04-27T16:53:45.027Z,22.02
2023-04-27T16:56:13.466Z,21.95
2023-04-27T16:58:40.969Z,21.16
2023-04-27T17:01:07.909Z,20.56
2023-04-27T17:03:36.178Z,20.13
2023-04-27T17:06:03.453Z,19.76
2023-04-27T17:08:30.171Z,18.82
2023-04-27T17:10:56.767Z,18.52
2023-04-27T17:13:23.609Z,18.14
2023-04-27T17:15:50.631Z,17.49
2023-04-27T17:18:17.860Z,17.07
2023-04-27T17:20:44.493Z,16.81
2023-04-27T17:23:11.084Z,16.52
2023-04-27T17:25:37.664Z,16.36
2023-04-27T17:28:04.346Z,16.03
2023-04-27T17:30:31.258Z,15.84
2023-04-27T17:32:57.962Z,15.37
2023-04-27T17:35:24.732Z,15.08
2023-04-27T17:37:52.036Z,14.82
2023-04-27T17:40:20.999Z,14.64
2023-04-27T17:42:47.809Z,14.40
2023-04-27T17:45:14.868Z,14.00
2023-04-27T17:47:41.659Z,13.75
2023-04-27T17:50:08.857Z,13.61
2023-04-27T17:52:35.797Z,13.49
2023-04-27T17:55:02.965Z,13.35
2023-04-27T17:57:29.634Z,13.09
2023-04-27T17:59:56.176Z,12.87
2023-04-27T18:02:23.276Z,12.79
2023-04-27T18:04:50.073Z,12.59
2023-04-27T18:07:18.626Z,12.23
2023-04-27T18:09:45.679Z,11.75
2023-04-27T18:12:12.607Z,11.38
2023-04-27T18:14:39.433Z,11.46
2023-04-27T18:17:06.314Z,11.22
2023-04-27T18:19:32.891Z,11.06
2023-04-27T18:21:59.538Z,10.85
2023-04-27T18:24:26.153Z,10.70
2023-04-27T18:26:52.889Z,10.47
2023-04-27T18:29:19.442Z,10.39
2023-04-27T18:31:46.299Z,10.15
2023-04-27T18:34:14.725Z,9.81
2023-04-27T18:36:41.355Z,9.57
2023-04-27T18:39:08.002Z,9.36
2023-04-27T18:41:34.653Z,9.18
2023-04-27T18:44:07.088Z,8.97
2023-04-27T18:46:34.683Z,8.81
2023-04-27T18:49:02.159Z,8.73
2023-04-27T18:51:29.385Z,8.71
2023-04-27T18:53:57.513Z,8.72
2023-04-27T18:56:24.278Z,8.72
2023-04-27T18:58:51.572Z,8.62
2023-04-27T19:01:26.063Z,8.55
2023-04-27T19:03:53.586Z,8.44
2023-04-27T19:06:21.217Z,8.28
2023-04-27T19:08:48.287Z,8.12
2023-04-27T19:11:17.899Z,8.02
2023-04-27T19:13:47.753Z,7.79
2023-04-27T19:16:15.542Z,7.70
2023-04-27T19:18:42.178Z,7.60
2023-04-27T19:21:10.057Z,7.54
2023-04-27T19:23:36.744Z,7.35
2023-04-27T19:26:12.452Z,7.23
2023-04-27T19:28:40.131Z,7.05
2023-04-27T19:31:07.897Z,6.79
2023-04-27T19:33:34.580Z,6.75
2023-04-27T19:36:01.166Z,6.80
2023-04-27T19:38:27.856Z,6.72
2023-04-27T19:40:54.430Z,6.75
2023-04-27T19:43:21.743Z,6.73
2023-04-27T19:45:49.293Z,6.64
2023-04-27T19:48:16.165Z,6.64
2023-04-27T19:50:43.433Z,6.67
2023-04-27T19:53:10.944Z,6.75
2023-04-27T19:55:37.862Z,6.66
2023-04-27T19:58:04.585Z,6.54
2023-04-27T20:00:31.169Z,6.45
2023-04-27T20:02:57.997Z,6.36
2023-04-27T20:05:25.160Z,6.27
2023-04-27T20:07:52.012Z,6.12
2023-04-27T20:10:18.717Z,5.95
2023-04-27T20:12:56.223Z,5.91
2023-04-27T20:15:24.878Z,5.88
2023-04-27T20:17:52.688Z,5.93
2023-04-27T20:20:19.612Z,5.96
2023-04-27T20:22:46.200Z,5.94
2023-04-27T20:25:14.611Z,5.96
2023-04-27T20:27:41.642Z,5.87
2023-04-27T20:30:08.977Z,5.91
2023-04-27T20:32:36.345Z,5.88
2023-04-27T20:35:04.832Z,5.83
2023-04-27T20:37:32.417Z,5.86
2023-04-27T20:39:59.456Z,5.93
2023-04-27T20:42:26.096Z,5.86
2023-04-27T20:44:54.871Z,5.78
2023-04-27T20:47:21.949Z,5.59
2023-04-27T20:49:48.714Z,5.42
2023-04-27T20:52:15.487Z,5.34
2023-04-27T20:54:42.412Z,5.27
2023-04-27T20:57:13.489Z,5.15
2023-04-27T20:59:41.152Z,4.99
2023-04-27T21:02:08.241Z,4.96
2023-04-27T21:04:34.957Z,4.95
2023-04-27T21:07:01.609Z,4.92
2023-04-27T21:09:28.257Z,4.90
2023-04-27T21:11:54.843Z,4.86
2023-04-27T21:14:21.457Z,4.90
2023-04-27T21:16:48.139Z,4.82
2023-04-27T21:19:16.543Z,4.75
2023-04-27T21:21:43.266Z,4.73
2023-04-27T21:24:09.867Z,4.70
2023-04-27T21:26:36.684Z,4.70
2023-04-27T21:29:05.622Z,4.70
2023-04-27T21:31:33.278Z,4.70
2023-04-27T21:34:00.127Z,4.61
2023-04-27T21:36:26.794Z,4.42
2023-04-27T21:38:53.434Z,4.37
2023-04-27T21:41:19.985Z,4.25
2023-04-27T21:43:46.750Z,4.25
2023-04-27T21:46:13.399Z,4.15
2023-04-27T21:48:39.991Z,4.17
2023-04-27T21:51:06.568Z,4.16
2023-04-27T21:53:33.118Z,4.08
2023-04-27T21:56:00.064Z,4.02
2023-04-27T21:58:26.777Z,3.91
2023-04-27T22:00:53.344Z,3.94
2023-04-27T22:03:20.110Z,4.00
2023-04-27T22:05:48.942Z,3.95
2023-04-27T22:08:17.357Z,3.96
2023-04-27T22:10:45.204Z,4.00
2023-04-27T22:15:41.385Z,3.96
2023-04-27T22:18:08.120Z,3.92
2023-04-27T22:20:35.079Z,3.76
2023-04-27T22:23:01.825Z,3.72
2023-04-27T22:25:28.481Z,3.57
2023-04-27T22:27:55.113Z,3.41
2023-04-27T22:30:21.753Z,3.39
2023-04-27T22:32:48.541Z,3.36
2023-04-27T22:35:25.332Z,3.32
2023-04-27T22:37:53.629Z,3.27
2023-04-27T22:40:20.358Z,3.22
2023-04-27T22:42:46.901Z,3.21
2023-04-27T22:45:13.661Z,3.15
2023-04-27T22:47:41.375Z,3.10
2023-04-27T22:50:08.716Z,3.03
2023-04-27T22:52:37.335Z,3.03
2023-04-27T22:55:04.519Z,3.01
2023-04-27T22:57:31.507Z,2.99
2023-04-27T22:59:58.134Z,2.97
2023-04-27T23:02:24.843Z,3.01
2023-04-27T23:04:51.571Z,3.07
2023-04-27T23:07:18.278Z,3.14
2023-04-27T23:09:45.819Z,3.20
2023-04-27T23:12:12.506Z,3.24
2023-04-27T23:14:40.558Z,3.24
2023-04-27T23:17:07.531Z,3.17
2023-04-27T23:19:34.703Z,3.13
2023-04-27T23:22:01.817Z,3.16
2023-04-27T23:24:31.539Z,3.13
2023-04-27T23:26:58.514Z,3.07
2023-04-27T23:29:25.484Z,3.04
2023-04-27T23:31:52.114Z,2.95
2023-04-27T23:34:18.876Z,2.87
2023-04-27T23:36:45.433Z,2.80
2023-04-27T23:39:12.294Z,2.77
2023-04-27T23:41:38.818Z,2.79
2023-04-27T23:44:05.366Z,2.78
2023-04-27T23:46:32.007Z,2.77
2023-04-27T23:48:58.614Z,2.74
2023-04-27T23:51:25.292Z,2.72
2023-04-27T23:53:51.880Z,2.75
2023-04-27T23:56:19.349Z,2.72
2023-04-27T23:58:46.044Z,2.54
